sensor_id;sensor_type;location;lat;lon;timestamp;P1;durP1;ratioP1;P2;durP2;ratioP2
14209;SDS011;7188;56.070;12.698;2024-03-08T00:03:08;7.13;;;5.83;;
14209;SDS011;7188;56.070;12.698;2024-03-08T00:05:35;9.20;;;6.47;;
14209;SDS011;7188;56.070;12.698;2024-03-08T00:08:04;10.50;;;6.17;;
14209;SDS011;7188;56.070;12.698;2024-03-08T00:10:30;8.30;;;5.83;;
14209;SDS011;7188;56.070;12.698;2024-03-08T00:12:55;8.70;;;5.97;;
14209;SDS011;7188;56.070;12.698;2024-03-08T00:15:22;9.60;;;5.97;;
14209;SDS011;7188;56.070;12.698;2024-03-08T00:17:48;10.57;;;5.87;;
14209;SDS011;7188;56.070;12.698;2024-03-08T00:20:14;7.10;;;5.60;;
14209;SDS011;7188;56.070;12.698;2024-03-08T00:22:43;7.03;;;5.50;;
14209;SDS011;7188;56.070;12.698;2024-03-08T00:25:08;7.67;;;6.13;;
14209;SDS011;7188;56.070;12.698;2024-03-08T00:27:34;9.03;;;6.97;;
14209;SDS011;7188;56.070;12.698;2024-03-08T00:30:00;10.67;;;6.67;;
14209;SDS011;7188;56.070;12.698;2024-03-08T00:32:26;8.30;;;6.07;;
14209;SDS011;7188;56.070;12.698;2024-03-08T00:34:53;8.07;;;5.67;;
14209;SDS011;7188;56.070;12.698;2024-03-08T00:37:19;8.47;;;5.63;;
14209;SDS011;7188;56.070;12.698;2024-03-08T00:39:47;10.40;;;5.63;;
14209;SDS011;7188;56.070;12.698;2024-03-08T00:42:15;8.27;;;5.60;;
14209;SDS011;7188;56.070;12.698;2024-03-08T00:44:41;8.87;;;5.40;;
14209;SDS011;7188;56.070;12.698;2024-03-08T00:47:06;8.33;;;6.23;;
14209;SDS011;7188;56.070;12.698;2024-03-08T00:49:32;9.00;;;5.77;;
14209;SDS011;7188;56.070;12.698;2024-03-08T00:51:58;9.13;;;6.70;;
14209;SDS011;7188;56.070;12.698;2024-03-08T00:54:23;8.00;;;5.37;;
14209;SDS011;7188;56.070;12.698;2024-03-08T00:56:49;8.83;;;6.60;;
14209;SDS011;7188;56.070;12.698;2024-03-08T00:59:15;7.73;;;6.20;;
14209;SDS011;7188;56.070;12.698;2024-03-08T01:01:41;9.03;;;6.47;;
14209;SDS011;7188;56.070;12.698;2024-03-08T01:04:09;10.87;;;7.20;;
14209;SDS011;7188;56.070;12.698;2024-03-08T01:06:35;9.23;;;6.53;;
14209;SDS011;7188;56.070;12.698;2024-03-08T01:09:01;9.10;;;6.47;;
14209;SDS011;7188;56.070;12.698;2024-03-08T01:11:26;8.73;;;6.63;;
14209;SDS011;7188;56.070;12.698;2024-03-08T01:13:53;10.07;;;7.27;;
14209;SDS011;7188;56.070;12.698;2024-03-08T01:16:19;8.67;;;6.93;;
14209;SDS011;7188;56.070;12.698;2024-03-08T01:18:47;9.63;;;6.73;;
14209;SDS011;7188;56.070;12.698;2024-03-08T01:21:13;8.83;;;6.80;;
14209;SDS011;7188;56.070;12.698;2024-03-08T01:23:39;9.40;;;6.13;;
14209;SDS011;7188;56.070;12.698;2024-03-08T01:26:04;9.97;;;6.70;;
14209;SDS011;7188;56.070;12.698;2024-03-08T01:28:31;12.90;;;7.10;;
14209;SDS011;7188;56.070;12.698;2024-03-08T01:30:59;9.10;;;6.43;;
14209;SDS011;7188;56.070;12.698;2024-03-08T01:33:25;9.10;;;6.27;;
14209;SDS011;7188;56.070;12.698;2024-03-08T01:35:52;8.17;;;6.07;;
14209;SDS011;7188;56.070;12.698;2024-03-08T01:38:18;11.13;;;6.67;;
14209;SDS011;7188;56.070;12.698;2024-03-08T01:40:46;10.07;;;6.37;;
14209;SDS011;7188;56.070;12.698;2024-03-08T01:43:18;9.43;;;6.07;;
14209;SDS011;7188;56.070;12.698;2024-03-08T01:45:50;12.97;;;7.53;;
14209;SDS011;7188;56.070;12.698;2024-03-08T01:48:16;10.53;;;6.37;;
14209;SDS011;7188;56.070;12.698;2024-03-08T01:50:43;11.37;;;6.70;;
14209;SDS011;7188;56.070;12.698;2024-03-08T01:53:10;7.13;;;5.87;;
14209;SDS011;7188;56.070;12.698;2024-03-08T01:55:40;10.80;;;7.07;;
14209;SDS011;7188;56.070;12.698;2024-03-08T01:58:07;11.23;;;6.90;;
14209;SDS011;7188;56.070;12.698;2024-03-08T02:00:36;9.07;;;6.77;;
14209;SDS011;7188;56.070;12.698;2024-03-08T02:03:05;7.87;;;5.37;;
14209;SDS011;7188;56.070;12.698;2024-03-08T02:05:30;12.30;;;6.80;;
14209;SDS011;7188;56.070;12.698;2024-03-08T02:07:57;9.00;;;6.90;;
14209;SDS011;7188;56.070;12.698;2024-03-08T02:10:23;8.07;;;6.37;;
14209;SDS011;7188;56.070;12.698;2024-03-08T02:12:48;10.17;;;7.10;;
14209;SDS011;7188;56.070;12.698;2024-03-08T02:15:14;11.43;;;6.97;;
14209;SDS011;7188;56.070;12.698;2024-03-08T02:17:40;11.03;;;7.23;;
14209;SDS011;7188;56.070;12.698;2024-03-08T02:20:06;10.10;;;6.97;;
14209;SDS011;7188;56.070;12.698;2024-03-08T02:22:34;11.23;;;8.07;;
14209;SDS011;7188;56.070;12.698;2024-03-08T02:25:00;9.07;;;6.90;;
14209;SDS011;7188;56.070;12.698;2024-03-08T02:27:28;9.70;;;6.63;;
14209;SDS011;7188;56.070;12.698;2024-03-08T02:29:57;8.50;;;6.37;;
14209;SDS011;7188;56.070;12.698;2024-03-08T02:32:24;9.57;;;6.23;;
14209;SDS011;7188;56.070;12.698;2024-03-08T02:34:50;10.90;;;6.90;;
14209;SDS011;7188;56.070;12.698;2024-03-08T02:37:16;12.83;;;6.83;;
14209;SDS011;7188;56.070;12.698;2024-03-08T02:39:42;10.20;;;6.83;;
14209;SDS011;7188;56.070;12.698;2024-03-08T02:42:08;7.20;;;5.57;;
14209;SDS011;7188;56.070;12.698;2024-03-08T02:44:34;12.30;;;7.47;;
14209;SDS011;7188;56.070;12.698;2024-03-08T02:47:00;10.50;;;7.80;;
14209;SDS011;7188;56.070;12.698;2024-03-08T02:49:26;9.53;;;6.40;;
14209;SDS011;7188;56.070;12.698;2024-03-08T02:51:52;9.23;;;6.83;;
14209;SDS011;7188;56.070;12.698;2024-03-08T02:54:18;8.27;;;6.13;;
14209;SDS011;7188;56.070;12.698;2024-03-08T02:56:45;10.60;;;7.40;;
14209;SDS011;7188;56.070;12.698;2024-03-08T02:59:16;8.40;;;6.60;;
14209;SDS011;7188;56.070;12.698;2024-03-08T03:01:42;11.50;;;8.17;;
14209;SDS011;7188;56.070;12.698;2024-03-08T03:04:08;12.60;;;7.70;;
14209;SDS011;7188;56.070;12.698;2024-03-08T03:06:34;9.30;;;7.30;;
14209;SDS011;7188;56.070;12.698;2024-03-08T03:09:00;11.87;;;7.67;;
14209;SDS011;7188;56.070;12.698;2024-03-08T03:11:26;13.80;;;7.10;;
14209;SDS011;7188;56.070;12.698;2024-03-08T03:13:52;8.37;;;6.20;;
14209;SDS011;7188;56.070;12.698;2024-03-08T03:16:18;11.33;;;6.27;;
14209;SDS011;7188;56.070;12.698;2024-03-08T03:18:45;10.60;;;7.20;;
14209;SDS011;7188;56.070;12.698;2024-03-08T03:21:11;10.57;;;7.57;;
14209;SDS011;7188;56.070;12.698;2024-03-08T03:23:38;8.80;;;7.57;;
14209;SDS011;7188;56.070;12.698;2024-03-08T03:26:05;12.80;;;7.80;;
14209;SDS011;7188;56.070;12.698;2024-03-08T03:28:32;12.00;;;8.53;;
14209;SDS011;7188;56.070;12.698;2024-03-08T03:30:58;10.10;;;7.53;;
14209;SDS011;7188;56.070;12.698;2024-03-08T03:33:24;12.47;;;7.13;;
14209;SDS011;7188;56.070;12.698;2024-03-08T03:35:50;10.73;;;7.73;;
14209;SDS011;7188;56.070;12.698;2024-03-08T03:38:19;9.93;;;7.90;;
14209;SDS011;7188;56.070;12.698;2024-03-08T03:40:48;10.93;;;7.00;;
14209;SDS011;7188;56.070;12.698;2024-03-08T03:43:17;9.07;;;6.93;;
14209;SDS011;7188;56.070;12.698;2024-03-08T03:45:43;10.97;;;7.80;;
14209;SDS011;7188;56.070;12.698;2024-03-08T03:48:08;13.23;;;7.87;;
14209;SDS011;7188;56.070;12.698;2024-03-08T03:50:34;11.60;;;7.57;;
14209;SDS011;7188;56.070;12.698;2024-03-08T03:53:01;12.00;;;7.87;;
14209;SDS011;7188;56.070;12.698;2024-03-08T03:55:27;10.13;;;8.10;;
14209;SDS011;7188;56.070;12.698;2024-03-08T03:57:53;9.67;;;6.63;;
14209;SDS011;7188;56.070;12.698;2024-03-08T04:00:19;10.93;;;7.90;;
14209;SDS011;7188;56.070;12.698;2024-03-08T04:02:45;10.57;;;8.67;;
14209;SDS011;7188;56.070;12.698;2024-03-08T04:05:11;10.37;;;7.57;;
14209;SDS011;7188;56.070;12.698;2024-03-08T04:07:38;9.13;;;7.50;;
14209;SDS011;7188;56.070;12.698;2024-03-08T04:10:04;13.10;;;7.17;;
14209;SDS011;7188;56.070;12.698;2024-03-08T04:12:32;12.27;;;8.23;;
14209;SDS011;7188;56.070;12.698;2024-03-08T04:17:52;11.17;;;7.30;;
14209;SDS011;7188;56.070;12.698;2024-03-08T04:20:18;10.67;;;7.40;;
14209;SDS011;7188;56.070;12.698;2024-03-08T04:22:44;11.63;;;7.70;;
14209;SDS011;7188;56.070;12.698;2024-03-08T04:25:14;14.47;;;8.87;;
14209;SDS011;7188;56.070;12.698;2024-03-08T04:27:40;10.57;;;8.43;;
14209;SDS011;7188;56.070;12.698;2024-03-08T04:30:06;10.43;;;7.83;;
14209;SDS011;7188;56.070;12.698;2024-03-08T04:32:32;12.53;;;8.43;;
14209;SDS011;7188;56.070;12.698;2024-03-08T04:34:58;10.90;;;7.77;;
14209;SDS011;7188;56.070;12.698;2024-03-08T04:37:26;14.10;;;7.93;;
14209;SDS011;7188;56.070;12.698;2024-03-08T04:39:54;14.37;;;9.10;;
14209;SDS011;7188;56.070;12.698;2024-03-08T04:42:20;13.30;;;8.80;;
14209;SDS011;7188;56.070;12.698;2024-03-08T04:47:39;10.23;;;7.60;;
14209;SDS011;7188;56.070;12.698;2024-03-08T04:50:04;12.13;;;7.80;;
14209;SDS011;7188;56.070;12.698;2024-03-08T04:52:30;13.77;;;9.00;;
14209;SDS011;7188;56.070;12.698;2024-03-08T04:57:48;13.80;;;8.77;;
14209;SDS011;7188;56.070;12.698;2024-03-08T05:00:14;13.90;;;9.30;;
14209;SDS011;7188;56.070;12.698;2024-03-08T05:02:40;13.53;;;8.33;;
14209;SDS011;7188;56.070;12.698;2024-03-08T05:05:06;14.37;;;9.30;;
14209;SDS011;7188;56.070;12.698;2024-03-08T05:07:35;13.33;;;8.83;;
14209;SDS011;7188;56.070;12.698;2024-03-08T05:10:16;14.63;;;9.53;;
14209;SDS011;7188;56.070;12.698;2024-03-08T05:12:42;12.33;;;9.00;;
14209;SDS011;7188;56.070;12.698;2024-03-08T05:15:08;10.77;;;8.33;;
14209;SDS011;7188;56.070;12.698;2024-03-08T05:17:34;13.70;;;9.47;;
14209;SDS011;7188;56.070;12.698;2024-03-08T05:19:59;13.40;;;8.70;;
14209;SDS011;7188;56.070;12.698;2024-03-08T05:22:25;13.77;;;9.90;;
14209;SDS011;7188;56.070;12.698;2024-03-08T05:24:51;15.27;;;8.87;;
14209;SDS011;7188;56.070;12.698;2024-03-08T05:27:17;14.43;;;8.93;;
14209;SDS011;7188;56.070;12.698;2024-03-08T05:29:42;15.90;;;9.57;;
14209;SDS011;7188;56.070;12.698;2024-03-08T05:32:08;12.63;;;9.47;;
14209;SDS011;7188;56.070;12.698;2024-03-08T05:34:35;18.37;;;10.60;;
14209;SDS011;7188;56.070;12.698;2024-03-08T05:37:01;14.33;;;8.87;;
14209;SDS011;7188;56.070;12.698;2024-03-08T05:39:27;16.63;;;10.60;;
14209;SDS011;7188;56.070;12.698;2024-03-08T05:44:46;13.97;;;9.10;;
14209;SDS011;7188;56.070;12.698;2024-03-08T05:47:12;15.47;;;10.00;;
14209;SDS011;7188;56.070;12.698;2024-03-08T05:49:37;12.17;;;9.13;;
14209;SDS011;7188;56.070;12.698;2024-03-08T05:52:04;17.07;;;10.30;;
14209;SDS011;7188;56.070;12.698;2024-03-08T05:54:29;12.60;;;8.77;;
14209;SDS011;7188;56.070;12.698;2024-03-08T05:56:55;15.27;;;9.57;;
14209;SDS011;7188;56.070;12.698;2024-03-08T06:02:28;19.07;;;9.87;;
14209;SDS011;7188;56.070;12.698;2024-03-08T06:04:53;14.27;;;9.83;;
14209;SDS011;7188;56.070;12.698;2024-03-08T06:07:19;14.30;;;9.50;;
14209;SDS011;7188;56.070;12.698;2024-03-08T06:09:45;15.77;;;10.23;;
14209;SDS011;7188;56.070;12.698;2024-03-08T06:12:13;17.83;;;9.03;;
14209;SDS011;7188;56.070;12.698;2024-03-08T06:14:43;15.17;;;9.33;;
14209;SDS011;7188;56.070;12.698;2024-03-08T06:17:10;16.60;;;9.80;;
14209;SDS011;7188;56.070;12.698;2024-03-08T06:19:36;19.30;;;9.60;;
14209;SDS011;7188;56.070;12.698;2024-03-08T06:22:02;16.70;;;10.30;;
14209;SDS011;7188;56.070;12.698;2024-03-08T06:27:19;14.20;;;9.37;;
14209;SDS011;7188;56.070;12.698;2024-03-08T06:29:45;14.23;;;8.00;;
14209;SDS011;7188;56.070;12.698;2024-03-08T06:32:11;15.47;;;10.40;;
14209;SDS011;7188;56.070;12.698;2024-03-08T06:34:36;17.40;;;9.77;;
14209;SDS011;7188;56.070;12.698;2024-03-08T06:37:02;17.60;;;9.77;;
14209;SDS011;7188;56.070;12.698;2024-03-08T06:39:27;15.77;;;10.87;;
14209;SDS011;7188;56.070;12.698;2024-03-08T06:41:57;17.83;;;9.63;;
14209;SDS011;7188;56.070;12.698;2024-03-08T06:44:23;16.37;;;10.63;;
14209;SDS011;7188;56.070;12.698;2024-03-08T06:46:48;13.10;;;8.67;;
14209;SDS011;7188;56.070;12.698;2024-03-08T06:49:14;21.27;;;12.00;;
14209;SDS011;7188;56.070;12.698;2024-03-08T06:51:40;17.97;;;11.80;;
14209;SDS011;7188;56.070;12.698;2024-03-08T06:54:06;14.83;;;10.67;;
14209;SDS011;7188;56.070;12.698;2024-03-08T06:56:33;18.40;;;11.57;;
14209;SDS011;7188;56.070;12.698;2024-03-08T06:58:59;19.03;;;12.27;;
14209;SDS011;7188;56.070;12.698;2024-03-08T07:01:28;18.57;;;12.07;;
14209;SDS011;7188;56.070;12.698;2024-03-08T07:03:57;21.43;;;12.93;;
14209;SDS011;7188;56.070;12.698;2024-03-08T07:06:23;23.40;;;13.57;;
14209;SDS011;7188;56.070;12.698;2024-03-08T07:08:48;16.80;;;10.27;;
14209;SDS011;7188;56.070;12.698;2024-03-08T07:11:14;21.73;;;12.40;;
14209;SDS011;7188;56.070;12.698;2024-03-08T07:19:43;22.37;;;14.30;;
14209;SDS011;7188;56.070;12.698;2024-03-08T07:22:10;18.57;;;12.73;;
14209;SDS011;7188;56.070;12.698;2024-03-08T07:24:36;21.93;;;13.77;;
14209;SDS011;7188;56.070;12.698;2024-03-08T07:27:02;19.30;;;11.90;;
14209;SDS011;7188;56.070;12.698;2024-03-08T07:29:34;19.63;;;14.53;;
14209;SDS011;7188;56.070;12.698;2024-03-08T07:32:00;19.07;;;13.80;;
14209;SDS011;7188;56.070;12.698;2024-03-08T07:34:25;25.53;;;14.20;;
14209;SDS011;7188;56.070;12.698;2024-03-08T07:36:51;21.47;;;14.30;;
14209;SDS011;7188;56.070;12.698;2024-03-08T07:39:17;23.20;;;14.97;;
14209;SDS011;7188;56.070;12.698;2024-03-08T07:41:44;24.53;;;15.00;;
14209;SDS011;7188;56.070;12.698;2024-03-08T07:44:09;22.30;;;16.67;;
14209;SDS011;7188;56.070;12.698;2024-03-08T07:46:35;27.17;;;18.10;;
14209;SDS011;7188;56.070;12.698;2024-03-08T07:49:02;19.03;;;15.60;;
14209;SDS011;7188;56.070;12.698;2024-03-08T07:51:28;20.17;;;15.97;;
14209;SDS011;7188;56.070;12.698;2024-03-08T07:53:53;19.63;;;15.67;;
14209;SDS011;7188;56.070;12.698;2024-03-08T07:56:20;15.53;;;12.47;;
14209;SDS011;7188;56.070;12.698;2024-03-08T07:58:46;19.43;;;14.57;;
14209;SDS011;7188;56.070;12.698;2024-03-08T08:01:17;18.10;;;14.83;;
14209;SDS011;7188;56.070;12.698;2024-03-08T08:03:43;20.70;;;15.47;;
14209;SDS011;7188;56.070;12.698;2024-03-08T08:06:09;22.37;;;15.67;;
14209;SDS011;7188;56.070;12.698;2024-03-08T08:08:35;26.60;;;17.63;;
14209;SDS011;7188;56.070;12.698;2024-03-08T08:11:01;25.23;;;17.80;;
14209;SDS011;7188;56.070;12.698;2024-03-08T08:13:27;23.40;;;19.03;;
14209;SDS011;7188;56.070;12.698;2024-03-08T08:15:57;31.47;;;22.03;;
14209;SDS011;7188;56.070;12.698;2024-03-08T08:18:23;26.47;;;17.53;;
14209;SDS011;7188;56.070;12.698;2024-03-08T08:20:50;27.57;;;20.53;;
14209;SDS011;7188;56.070;12.698;2024-03-08T08:23:17;25.57;;;19.33;;
14209;SDS011;7188;56.070;12.698;2024-03-08T08:25:44;28.23;;;19.73;;
14209;SDS011;7188;56.070;12.698;2024-03-08T08:28:10;24.40;;;16.63;;
14209;SDS011;7188;56.070;12.698;2024-03-08T08:30:37;25.87;;;17.30;;
14209;SDS011;7188;56.070;12.698;2024-03-08T08:33:03;23.40;;;15.70;;
14209;SDS011;7188;56.070;12.698;2024-03-08T08:35:30;21.73;;;16.50;;
14209;SDS011;7188;56.070;12.698;2024-03-08T08:37:57;19.97;;;14.43;;
14209;SDS011;7188;56.070;12.698;2024-03-08T08:40:24;20.77;;;13.60;;
14209;SDS011;7188;56.070;12.698;2024-03-08T08:42:50;24.73;;;15.23;;
14209;SDS011;7188;56.070;12.698;2024-03-08T08:45:18;22.10;;;14.63;;
14209;SDS011;7188;56.070;12.698;2024-03-08T08:47:44;18.37;;;14.67;;
14209;SDS011;7188;56.070;12.698;2024-03-08T08:50:10;18.73;;;13.00;;
14209;SDS011;7188;56.070;12.698;2024-03-08T08:52:42;18.13;;;12.87;;
14209;SDS011;7188;56.070;12.698;2024-03-08T08:55:10;17.30;;;10.90;;
14209;SDS011;7188;56.070;12.698;2024-03-08T08:57:42;14.73;;;12.37;;
14209;SDS011;7188;56.070;12.698;2024-03-08T09:00:08;18.27;;;12.60;;
14209;SDS011;7188;56.070;12.698;2024-03-08T09:02:34;16.57;;;12.77;;
14209;SDS011;7188;56.070;12.698;2024-03-08T09:05:00;18.90;;;13.37;;
14209;SDS011;7188;56.070;12.698;2024-03-08T09:07:26;16.13;;;12.23;;
14209;SDS011;7188;56.070;12.698;2024-03-08T09:09:53;18.30;;;14.67;;
14209;SDS011;7188;56.070;12.698;2024-03-08T09:12:23;18.90;;;14.40;;
14209;SDS011;7188;56.070;12.698;2024-03-08T09:14:49;18.67;;;14.90;;
14209;SDS011;7188;56.070;12.698;2024-03-08T09:17:15;21.40;;;13.40;;
14209;SDS011;7188;56.070;12.698;2024-03-08T09:19:45;18.50;;;15.67;;
14209;SDS011;7188;56.070;12.698;2024-03-08T09:22:14;17.73;;;13.40;;
14209;SDS011;7188;56.070;12.698;2024-03-08T09:24:39;18.93;;;13.73;;
14209;SDS011;7188;56.070;12.698;2024-03-08T09:27:05;16.60;;;12.73;;
14209;SDS011;7188;56.070;12.698;2024-03-08T09:29:31;15.43;;;13.20;;
14209;SDS011;7188;56.070;12.698;2024-03-08T09:31:56;16.63;;;12.93;;
14209;SDS011;7188;56.070;12.698;2024-03-08T09:34:22;20.80;;;13.87;;
14209;SDS011;7188;56.070;12.698;2024-03-08T09:36:48;15.93;;;12.70;;
14209;SDS011;7188;56.070;12.698;2024-03-08T09:39:17;13.57;;;10.90;;
14209;SDS011;7188;56.070;12.698;2024-03-08T09:41:44;12.83;;;10.60;;
14209;SDS011;7188;56.070;12.698;2024-03-08T09:44:13;15.67;;;11.70;;
14209;SDS011;7188;56.070;12.698;2024-03-08T09:46:39;16.97;;;12.73;;
14209;SDS011;7188;56.070;12.698;2024-03-08T09:49:05;18.37;;;12.50;;
14209;SDS011;7188;56.070;12.698;2024-03-08T09:51:33;18.80;;;13.13;;
14209;SDS011;7188;56.070;12.698;2024-03-08T09:54:02;21.23;;;13.93;;
14209;SDS011;7188;56.070;12.698;2024-03-08T09:56:33;20.73;;;13.87;;
14209;SDS011;7188;56.070;12.698;2024-03-08T09:59:01;18.00;;;12.40;;
14209;SDS011;7188;56.070;12.698;2024-03-08T10:01:45;21.33;;;12.57;;
14209;SDS011;7188;56.070;12.698;2024-03-08T10:04:11;26.97;;;13.70;;
14209;SDS011;7188;56.070;12.698;2024-03-08T10:06:39;19.27;;;12.50;;
14209;SDS011;7188;56.070;12.698;2024-03-08T10:09:05;17.33;;;12.13;;
14209;SDS011;7188;56.070;12.698;2024-03-08T10:11:33;14.77;;;10.13;;
14209;SDS011;7188;56.070;12.698;2024-03-08T10:14:00;17.00;;;11.67;;
14209;SDS011;7188;56.070;12.698;2024-03-08T10:16:29;14.60;;;10.90;;
14209;SDS011;7188;56.070;12.698;2024-03-08T10:18:58;14.10;;;9.87;;
14209;SDS011;7188;56.070;12.698;2024-03-08T10:21:25;12.90;;;10.10;;
14209;SDS011;7188;56.070;12.698;2024-03-08T10:23:52;13.90;;;10.17;;
14209;SDS011;7188;56.070;12.698;2024-03-08T10:26:18;13.43;;;10.53;;
14209;SDS011;7188;56.070;12.698;2024-03-08T10:28:48;12.77;;;10.23;;
14209;SDS011;7188;56.070;12.698;2024-03-08T10:31:15;15.37;;;11.73;;
14209;SDS011;7188;56.070;12.698;2024-03-08T10:33:41;16.57;;;12.50;;
14209;SDS011;7188;56.070;12.698;2024-03-08T10:36:07;15.87;;;12.43;;
14209;SDS011;7188;56.070;12.698;2024-03-08T10:38:37;14.90;;;12.33;;
14209;SDS011;7188;56.070;12.698;2024-03-08T10:41:07;13.37;;;11.27;;
14209;SDS011;7188;56.070;12.698;2024-03-08T10:48:57;17.17;;;11.47;;
14209;SDS011;7188;56.070;12.698;2024-03-08T10:51:27;15.10;;;11.47;;
14209;SDS011;7188;56.070;12.698;2024-03-08T10:53:56;13.30;;;10.57;;
14209;SDS011;7188;56.070;12.698;2024-03-08T10:56:22;12.80;;;9.73;;
14209;SDS011;7188;56.070;12.698;2024-03-08T10:58:48;11.53;;;9.10;;
14209;SDS011;7188;56.070;12.698;2024-03-08T11:01:14;13.07;;;10.47;;
14209;SDS011;7188;56.070;12.698;2024-03-08T11:06:13;14.93;;;11.33;;
14209;SDS011;7188;56.070;12.698;2024-03-08T11:08:40;13.33;;;9.83;;
14209;SDS011;7188;56.070;12.698;2024-03-08T11:11:05;15.93;;;11.53;;
14209;SDS011;7188;56.070;12.698;2024-03-08T11:13:57;12.83;;;10.33;;
14209;SDS011;7188;56.070;12.698;2024-03-08T11:18:59;16.70;;;10.40;;
14209;SDS011;7188;56.070;12.698;2024-03-08T11:21:29;13.30;;;10.43;;
14209;SDS011;7188;56.070;12.698;2024-03-08T11:24:01;15.47;;;9.90;;
14209;SDS011;7188;56.070;12.698;2024-03-08T11:26:36;12.80;;;10.03;;
14209;SDS011;7188;56.070;12.698;2024-03-08T11:32:19;13.63;;;10.40;;
14209;SDS011;7188;56.070;12.698;2024-03-08T11:34:47;11.63;;;9.00;;
14209;SDS011;7188;56.070;12.698;2024-03-08T11:37:15;10.83;;;8.80;;
14209;SDS011;7188;56.070;12.698;2024-03-08T11:39:53;11.67;;;9.53;;
14209;SDS011;7188;56.070;12.698;2024-03-08T11:42:24;9.80;;;8.80;;
14209;SDS011;7188;56.070;12.698;2024-03-08T11:44:51;9.87;;;8.50;;
14209;SDS011;7188;56.070;12.698;2024-03-08T11:47:17;11.63;;;9.03;;
14209;SDS011;7188;56.070;12.698;2024-03-08T11:49:56;9.77;;;7.17;;
14209;SDS011;7188;56.070;12.698;2024-03-08T11:52:22;11.53;;;8.87;;
14209;SDS011;7188;56.070;12.698;2024-03-08T11:54:53;10.43;;;8.73;;
14209;SDS011;7188;56.070;12.698;2024-03-08T11:57:22;12.47;;;9.40;;
14209;SDS011;7188;56.070;12.698;2024-03-08T11:59:52;14.37;;;8.67;;
14209;SDS011;7188;56.070;12.698;2024-03-08T12:02:18;9.30;;;8.07;;
14209;SDS011;7188;56.070;12.698;2024-03-08T12:04:46;11.20;;;8.50;;
14209;SDS011;7188;56.070;12.698;2024-03-08T12:07:12;11.70;;;9.10;;
14209;SDS011;7188;56.070;12.698;2024-03-08T12:09:42;13.47;;;9.43;;
14209;SDS011;7188;56.070;12.698;2024-03-08T12:12:11;9.93;;;8.40;;
14209;SDS011;7188;56.070;12.698;2024-03-08T12:14:37;11.70;;;9.47;;
14209;SDS011;7188;56.070;12.698;2024-03-08T12:17:03;12.50;;;9.80;;
14209;SDS011;7188;56.070;12.698;2024-03-08T12:19:30;14.77;;;10.17;;
14209;SDS011;7188;56.070;12.698;2024-03-08T12:21:57;10.80;;;9.30;;
14209;SDS011;7188;56.070;12.698;2024-03-08T12:25:02;9.43;;;8.47;;
14209;SDS011;7188;56.070;12.698;2024-03-08T12:27:30;11.40;;;9.73;;
14209;SDS011;7188;56.070;12.698;2024-03-08T12:29:56;11.00;;;9.60;;
14209;SDS011;7188;56.070;12.698;2024-03-08T12:32:22;12.37;;;9.57;;
14209;SDS011;7188;56.070;12.698;2024-03-08T12:34:51;14.47;;;10.53;;
14209;SDS011;7188;56.070;12.698;2024-03-08T12:37:18;13.57;;;10.50;;
14209;SDS011;7188;56.070;12.698;2024-03-08T12:39:44;12.20;;;8.83;;
14209;SDS011;7188;56.070;12.698;2024-03-08T12:42:09;12.17;;;10.50;;
14209;SDS011;7188;56.070;12.698;2024-03-08T12:44:36;14.53;;;11.07;;
14209;SDS011;7188;56.070;12.698;2024-03-08T12:47:05;13.00;;;9.40;;
14209;SDS011;7188;56.070;12.698;2024-03-08T12:49:33;10.67;;;8.67;;
14209;SDS011;7188;56.070;12.698;2024-03-08T12:51:59;10.10;;;8.50;;
14209;SDS011;7188;56.070;12.698;2024-03-08T12:54:25;12.50;;;9.53;;
14209;SDS011;7188;56.070;12.698;2024-03-08T12:56:51;10.27;;;7.97;;
14209;SDS011;7188;56.070;12.698;2024-03-08T12:59:20;10.47;;;8.73;;
14209;SDS011;7188;56.070;12.698;2024-03-08T13:01:46;10.47;;;7.80;;
14209;SDS011;7188;56.070;12.698;2024-03-08T13:04:15;8.70;;;7.03;;
14209;SDS011;7188;56.070;12.698;2024-03-08T13:06:41;8.17;;;6.80;;
14209;SDS011;7188;56.070;12.698;2024-03-08T13:09:07;12.73;;;8.03;;
14209;SDS011;7188;56.070;12.698;2024-03-08T13:11:33;11.23;;;8.60;;
14209;SDS011;7188;56.070;12.698;2024-03-08T13:14:02;11.00;;;7.93;;
14209;SDS011;7188;56.070;12.698;2024-03-08T13:16:30;9.60;;;7.53;;
14209;SDS011;7188;56.070;12.698;2024-03-08T13:19:05;6.97;;;5.83;;
14209;SDS011;7188;56.070;12.698;2024-03-08T13:21:30;10.70;;;8.80;;
14209;SDS011;7188;56.070;12.698;2024-03-08T13:23:56;10.83;;;8.37;;
14209;SDS011;7188;56.070;12.698;2024-03-08T13:26:24;13.47;;;9.37;;
14209;SDS011;7188;56.070;12.698;2024-03-08T13:28:51;11.60;;;9.23;;
14209;SDS011;7188;56.070;12.698;2024-03-08T13:31:19;10.50;;;8.30;;
14209;SDS011;7188;56.070;12.698;2024-03-08T13:33:45;12.83;;;9.20;;
14209;SDS011;7188;56.070;12.698;2024-03-08T13:36:16;12.53;;;8.90;;
14209;SDS011;7188;56.070;12.698;2024-03-08T13:38:46;10.97;;;7.97;;
14209;SDS011;7188;56.070;12.698;2024-03-08T13:41:13;11.17;;;7.80;;
14209;SDS011;7188;56.070;12.698;2024-03-08T13:43:40;11.10;;;8.10;;
14209;SDS011;7188;56.070;12.698;2024-03-08T13:46:06;12.67;;;10.03;;
14209;SDS011;7188;56.070;12.698;2024-03-08T13:48:35;12.57;;;9.47;;
14209;SDS011;7188;56.070;12.698;2024-03-08T13:51:06;13.67;;;9.07;;
14209;SDS011;7188;56.070;12.698;2024-03-08T13:53:32;9.80;;;7.97;;
14209;SDS011;7188;56.070;12.698;2024-03-08T13:56:00;9.17;;;7.37;;
14209;SDS011;7188;56.070;12.698;2024-03-08T13:58:30;13.03;;;8.40;;
14209;SDS011;7188;56.070;12.698;2024-03-08T14:00:55;10.00;;;7.57;;
14209;SDS011;7188;56.070;12.698;2024-03-08T14:03:21;9.37;;;6.67;;
14209;SDS011;7188;56.070;12.698;2024-03-08T14:05:48;9.13;;;5.53;;
14209;SDS011;7188;56.070;12.698;2024-03-08T14:08:14;7.20;;;5.97;;
14209;SDS011;7188;56.070;12.698;2024-03-08T14:10:42;9.40;;;7.23;;
14209;SDS011;7188;56.070;12.698;2024-03-08T14:13:08;8.03;;;6.47;;
14209;SDS011;7188;56.070;12.698;2024-03-08T14:15:34;7.57;;;5.53;;
14209;SDS011;7188;56.070;12.698;2024-03-08T14:18:00;7.03;;;5.83;;
14209;SDS011;7188;56.070;12.698;2024-03-08T14:20:26;8.10;;;6.23;;
14209;SDS011;7188;56.070;12.698;2024-03-08T14:22:55;10.50;;;7.33;;
14209;SDS011;7188;56.070;12.698;2024-03-08T14:25:21;8.07;;;6.17;;
14209;SDS011;7188;56.070;12.698;2024-03-08T14:27:49;11.07;;;6.50;;
14209;SDS011;7188;56.070;12.698;2024-03-08T14:30:16;7.80;;;6.50;;
14209;SDS011;7188;56.070;12.698;2024-03-08T14:32:57;11.30;;;8.27;;
14209;SDS011;7188;56.070;12.698;2024-03-08T14:35:30;9.57;;;7.33;;
14209;SDS011;7188;56.070;12.698;2024-03-08T14:37:56;8.20;;;7.33;;
14209;SDS011;7188;56.070;12.698;2024-03-08T14:40:23;8.13;;;6.07;;
14209;SDS011;7188;56.070;12.698;2024-03-08T14:42:49;8.40;;;6.43;;
14209;SDS011;7188;56.070;12.698;2024-03-08T14:45:19;7.43;;;5.70;;
14209;SDS011;7188;56.070;12.698;2024-03-08T14:47:48;10.07;;;6.03;;
14209;SDS011;7188;56.070;12.698;2024-03-08T14:50:17;6.70;;;5.20;;
14209;SDS011;7188;56.070;12.698;2024-03-08T14:52:44;12.50;;;7.60;;
14209;SDS011;7188;56.070;12.698;2024-03-08T14:55:13;7.47;;;5.83;;
14209;SDS011;7188;56.070;12.698;2024-03-08T14:57:44;11.07;;;6.93;;
14209;SDS011;7188;56.070;12.698;2024-03-08T15:00:11;8.27;;;6.77;;
14209;SDS011;7188;56.070;12.698;2024-03-08T15:02:45;9.53;;;6.30;;
14209;SDS011;7188;56.070;12.698;2024-03-08T15:05:11;9.13;;;5.47;;
14209;SDS011;7188;56.070;12.698;2024-03-08T15:07:39;6.43;;;5.47;;
14209;SDS011;7188;56.070;12.698;2024-03-08T15:10:06;6.17;;;5.47;;
14209;SDS011;7188;56.070;12.698;2024-03-08T15:12:36;7.70;;;6.00;;